DAL6441 KSAN-KBOI
Flight info
| Callsign | DAL6441 |
|---|---|
| Flight time | 1h 53m |
| Altitude | 34000 |
| Route | PADRZ2 EHF BETBE/N0438F350 PRNCS SADYL4 |
| Aircraft | MD88/M-SDFGIRWY/C |
Departure
| Time | 2026-04-24 14:34 |
|---|---|
| Airport | San Diego International Airport (KSAN) |
Arrival
| Time | 2026-04-24 16:27 |
|---|---|
| Airport | Boise Air Terminal/Gowen Field (KBOI) |
| Time | Latitude | Longitude | Altitude | Speed | Heading |
|---|---|---|---|---|---|
| 2026-04-24 13:59 | 32.73301 | -117.19895 | 21 ft | 0 kts | 96° |
| 2026-04-24 14:21 | 32.73302 | -117.19902 | 21 ft | 2 kts | 91° |
| 2026-04-24 14:21 | 32.73300 | -117.19922 | 21 ft | 3 kts | 60° |
| 2026-04-24 14:21 | 32.73289 | -117.19935 | 23 ft | 3 kts | 22° |
| 2026-04-24 14:21 | 32.73274 | -117.19938 | 21 ft | 3 kts | 346° |
| 2026-04-24 14:22 | 32.73262 | -117.19932 | 21 ft | 1 kts | 325° |
| 2026-04-24 14:22 | 32.73259 | -117.19930 | 21 ft | 0 kts | 325° |
| 2026-04-24 14:26 | 32.73264 | -117.19935 | 21 ft | 2 kts | 322° |
| 2026-04-24 14:26 | 32.73295 | -117.19963 | 24 ft | 7 kts | 321° |
| 2026-04-24 14:26 | 32.73362 | -117.19977 | 23 ft | 16 kts | 8° |
| 2026-04-24 14:26 | 32.73461 | -117.19944 | 24 ft | 13 kts | 41° |
| 2026-04-24 14:27 | 32.73469 | -117.19852 | 26 ft | 11 kts | 105° |
| 2026-04-24 14:27 | 32.73446 | -117.19758 | 27 ft | 12 kts | 106° |
| 2026-04-24 14:27 | 32.73422 | -117.19657 | 25 ft | 13 kts | 105° |
| 2026-04-24 14:27 | 32.73397 | -117.19556 | 24 ft | 13 kts | 106° |
| 2026-04-24 14:28 | 32.73372 | -117.19455 | 26 ft | 13 kts | 106° |
| 2026-04-24 14:28 | 32.73345 | -117.19344 | 23 ft | 15 kts | 106° |
| 2026-04-24 14:28 | 32.73315 | -117.19221 | 22 ft | 16 kts | 107° |
| 2026-04-24 14:28 | 32.73284 | -117.19098 | 24 ft | 15 kts | 107° |
| 2026-04-24 14:29 | 32.73257 | -117.18986 | 24 ft | 14 kts | 104° |
| 2026-04-24 14:29 | 32.73232 | -117.18872 | 23 ft | 14 kts | 105° |
| 2026-04-24 14:29 | 32.73206 | -117.18763 | 26 ft | 13 kts | 106° |
| 2026-04-24 14:29 | 32.73180 | -117.18659 | 26 ft | 14 kts | 106° |
| 2026-04-24 14:30 | 32.73162 | -117.18584 | 24 ft | 15 kts | 106° |
| 2026-04-24 14:30 | 32.73121 | -117.18416 | 21 ft | 16 kts | 106° |
| 2026-04-24 14:30 | 32.73090 | -117.18290 | 21 ft | 16 kts | 106° |
| 2026-04-24 14:30 | 32.73058 | -117.18156 | 21 ft | 18 kts | 106° |
| 2026-04-24 14:31 | 32.73022 | -117.18014 | 19 ft | 18 kts | 105° |
| 2026-04-24 14:31 | 32.72989 | -117.17870 | 17 ft | 19 kts | 105° |
| 2026-04-24 14:31 | 32.72954 | -117.17726 | 17 ft | 12 kts | 106° |
| 2026-04-24 14:31 | 32.72961 | -117.17637 | 19 ft | 10 kts | 75° |
| 2026-04-24 14:32 | 32.72992 | -117.17582 | 21 ft | 7 kts | 14° |
| 2026-04-24 14:32 | 32.73026 | -117.17611 | 21 ft | 3 kts | 292° |
| 2026-04-24 14:32 | 32.73027 | -117.17611 | 20 ft | 0 kts | 291° |
| 2026-04-24 14:33 | 32.73068 | -117.17776 | 19 ft | 55 kts | 286° |
| 2026-04-24 14:33 | 32.73228 | -117.18443 | 22 ft | 110 kts | 286° |
| 2026-04-24 14:33 | 32.73482 | -117.19489 | 26 ft | 154 kts | 287° |
| 2026-04-24 14:33 | 32.73813 | -117.20815 | 270 ft | 175 kts | 287° |
| 2026-04-24 14:34 | 32.74188 | -117.22290 | 621 ft | 196 kts | 290° |
| 2026-04-24 14:34 | 32.74832 | -117.23670 | 1444 ft | 186 kts | 306° |
| 2026-04-24 14:34 | 32.75612 | -117.24972 | 1930 ft | 197 kts | 307° |
| 2026-04-24 14:34 | 32.76422 | -117.26286 | 2561 ft | 198 kts | 307° |
| 2026-04-24 14:35 | 32.77253 | -117.27609 | 3148 ft | 204 kts | 307° |
| 2026-04-24 14:35 | 32.78125 | -117.28980 | 3655 ft | 212 kts | 307° |
| 2026-04-24 14:35 | 32.79036 | -117.30393 | 4170 ft | 220 kts | 307° |
| 2026-04-24 14:35 | 32.79965 | -117.31849 | 4680 ft | 229 kts | 307° |
| 2026-04-24 14:36 | 32.80947 | -117.33387 | 5182 ft | 239 kts | 307° |
| 2026-04-24 14:36 | 32.81993 | -117.35002 | 5523 ft | 254 kts | 307° |
| 2026-04-24 14:36 | 32.83105 | -117.36712 | 5880 ft | 268 kts | 307° |
| 2026-04-24 14:36 | 32.84250 | -117.38472 | 6452 ft | 270 kts | 307° |
| 2026-04-24 14:37 | 32.85404 | -117.40251 | 7046 ft | 274 kts | 307° |
| 2026-04-24 14:37 | 32.86570 | -117.42055 | 7643 ft | 275 kts | 307° |
| 2026-04-24 14:37 | 32.87742 | -117.43868 | 8185 ft | 279 kts | 307° |
| 2026-04-24 14:37 | 32.88927 | -117.45706 | 8725 ft | 281 kts | 307° |
| 2026-04-24 14:38 | 32.90118 | -117.47559 | 9269 ft | 283 kts | 306° |
| 2026-04-24 14:38 | 32.91318 | -117.49427 | 9834 ft | 284 kts | 306° |
| 2026-04-24 14:38 | 32.92515 | -117.51285 | 10434 ft | 283 kts | 306° |
| 2026-04-24 14:38 | 32.93735 | -117.53174 | 10775 ft | 293 kts | 305° |
| 2026-04-24 14:39 | 32.94996 | -117.55142 | 11079 ft | 304 kts | 305° |
| 2026-04-24 14:39 | 32.96277 | -117.57153 | 11335 ft | 315 kts | 305° |
| 2026-04-24 14:39 | 32.97640 | -117.59296 | 11666 ft | 324 kts | 305° |
| 2026-04-24 14:39 | 32.99006 | -117.61441 | 11918 ft | 336 kts | 305° |
| 2026-04-24 14:40 | 33.00427 | -117.63670 | 12447 ft | 340 kts | 304° |
| 2026-04-24 14:40 | 33.01866 | -117.65916 | 13069 ft | 341 kts | 304° |
| 2026-04-24 14:40 | 33.03308 | -117.68168 | 13700 ft | 343 kts | 304° |
| 2026-04-24 14:40 | 33.04753 | -117.70424 | 14382 ft | 344 kts | 304° |
| 2026-04-24 14:41 | 33.06224 | -117.72700 | 15017 ft | 347 kts | 307° |
| 2026-04-24 14:41 | 33.07933 | -117.74757 | 15630 ft | 352 kts | 314° |
| 2026-04-24 14:41 | 33.09809 | -117.76659 | 16198 ft | 356 kts | 316° |
| 2026-04-24 14:41 | 33.11727 | -117.78541 | 16813 ft | 358 kts | 316° |
| 2026-04-24 14:42 | 33.13005 | -117.79791 | 17182 ft | 360 kts | 316° |
| 2026-04-24 14:42 | 33.15608 | -117.82346 | 17945 ft | 362 kts | 316° |
| 2026-04-24 14:42 | 33.17549 | -117.84272 | 18500 ft | 364 kts | 315° |
| 2026-04-24 14:42 | 33.19496 | -117.86225 | 19022 ft | 367 kts | 315° |
| 2026-04-24 14:43 | 33.21463 | -117.88178 | 19553 ft | 369 kts | 315° |
| 2026-04-24 14:43 | 33.23457 | -117.90132 | 20050 ft | 371 kts | 315° |
| 2026-04-24 14:43 | 33.25465 | -117.92089 | 20526 ft | 373 kts | 315° |
| 2026-04-24 14:43 | 33.27481 | -117.94053 | 20975 ft | 376 kts | 315° |
| 2026-04-24 14:44 | 33.29511 | -117.96033 | 21436 ft | 378 kts | 315° |
| 2026-04-24 14:44 | 33.31558 | -117.98033 | 21880 ft | 381 kts | 315° |
| 2026-04-24 14:44 | 33.33609 | -118.00039 | 22352 ft | 382 kts | 315° |
| 2026-04-24 14:44 | 33.35673 | -118.02062 | 22771 ft | 385 kts | 315° |
| 2026-04-24 14:45 | 33.37754 | -118.04103 | 23192 ft | 387 kts | 315° |
| 2026-04-24 14:45 | 33.39843 | -118.06152 | 23589 ft | 390 kts | 315° |
| 2026-04-24 14:45 | 33.41914 | -118.08185 | 23997 ft | 392 kts | 315° |
| 2026-04-24 14:45 | 33.44026 | -118.10259 | 24381 ft | 394 kts | 315° |
| 2026-04-24 14:46 | 33.46176 | -118.12369 | 24795 ft | 395 kts | 315° |
| 2026-04-24 14:46 | 33.48308 | -118.14463 | 25192 ft | 396 kts | 315° |
| 2026-04-24 14:46 | 33.50240 | -118.16360 | 25552 ft | 398 kts | 314° |
| 2026-04-24 14:46 | 33.52390 | -118.18473 | 25894 ft | 400 kts | 314° |
| 2026-04-24 14:47 | 33.53845 | -118.19907 | 26149 ft | 401 kts | 314° |
| 2026-04-24 14:47 | 33.56700 | -118.22715 | 26632 ft | 402 kts | 315° |
| 2026-04-24 14:47 | 33.59064 | -118.24582 | 26971 ft | 413 kts | 326° |
| 2026-04-24 14:47 | 33.61667 | -118.26074 | 27306 ft | 417 kts | 329° |
| 2026-04-24 14:48 | 33.64343 | -118.27485 | 27602 ft | 420 kts | 329° |
| 2026-04-24 14:48 | 33.66888 | -118.28810 | 27930 ft | 421 kts | 329° |
| 2026-04-24 14:48 | 33.69591 | -118.30226 | 28227 ft | 423 kts | 329° |
| 2026-04-24 14:48 | 33.72290 | -118.31666 | 28535 ft | 424 kts | 328° |
| 2026-04-24 14:49 | 33.74978 | -118.33125 | 28863 ft | 424 kts | 328° |
| 2026-04-24 14:49 | 33.77676 | -118.34577 | 29145 ft | 426 kts | 329° |
| 2026-04-24 14:49 | 33.80406 | -118.35982 | 29459 ft | 427 kts | 329° |
| 2026-04-24 14:49 | 33.83149 | -118.37358 | 29713 ft | 430 kts | 329° |
| 2026-04-24 14:50 | 33.85925 | -118.38742 | 29996 ft | 431 kts | 329° |
| 2026-04-24 14:50 | 33.88694 | -118.40125 | 30221 ft | 433 kts | 329° |
| 2026-04-24 14:50 | 33.91476 | -118.41521 | 30495 ft | 434 kts | 329° |
| 2026-04-24 14:50 | 33.94271 | -118.42931 | 30646 ft | 437 kts | 329° |
| 2026-04-24 14:51 | 33.97053 | -118.44336 | 31257 ft | 427 kts | 329° |
| 2026-04-24 14:51 | 33.99755 | -118.45667 | 32125 ft | 416 kts | 332° |
| 2026-04-24 14:51 | 34.02598 | -118.46495 | 32505 ft | 426 kts | 342° |
| 2026-04-24 14:51 | 34.05551 | -118.46963 | 32754 ft | 429 kts | 343° |
| 2026-04-24 14:52 | 34.08484 | -118.47346 | 32998 ft | 429 kts | 344° |
| 2026-04-24 14:52 | 34.11458 | -118.47726 | 33215 ft | 429 kts | 344° |
| 2026-04-24 14:52 | 34.13460 | -118.47990 | 33385 ft | 428 kts | 343° |
| 2026-04-24 14:52 | 34.17385 | -118.48538 | 33634 ft | 428 kts | 343° |
| 2026-04-24 14:53 | 34.20338 | -118.48979 | 33839 ft | 429 kts | 342° |
| 2026-04-24 14:53 | 34.26289 | -118.49914 | 33981 ft | 435 kts | 342° |
| 2026-04-24 14:54 | 34.31327 | -118.50724 | 34011 ft | 444 kts | 342° |
| 2026-04-24 14:54 | 34.37521 | -118.51703 | 34016 ft | 453 kts | 343° |
| 2026-04-24 14:55 | 34.43776 | -118.52663 | 34020 ft | 452 kts | 343° |
| 2026-04-24 14:55 | 34.50003 | -118.53623 | 34011 ft | 450 kts | 343° |
| 2026-04-24 14:56 | 34.56218 | -118.54592 | 34018 ft | 450 kts | 343° |
| 2026-04-24 14:56 | 34.62414 | -118.55562 | 34021 ft | 449 kts | 343° |
| 2026-04-24 14:57 | 34.68618 | -118.56530 | 34027 ft | 449 kts | 343° |
| 2026-04-24 14:57 | 34.74812 | -118.57498 | 34023 ft | 449 kts | 343° |
| 2026-04-24 14:58 | 34.81005 | -118.58468 | 34027 ft | 449 kts | 343° |
| 2026-04-24 14:58 | 34.87202 | -118.59437 | 34028 ft | 449 kts | 343° |
| 2026-04-24 14:59 | 34.93400 | -118.60403 | 34034 ft | 449 kts | 343° |
| 2026-04-24 14:59 | 34.99593 | -118.61458 | 34032 ft | 443 kts | 336° |
| 2026-04-24 14:59 | 35.02361 | -118.62833 | 34050 ft | 421 kts | 319° |
| 2026-04-24 15:00 | 35.04697 | -118.64905 | 34073 ft | 415 kts | 313° |
| 2026-04-24 15:00 | 35.09104 | -118.69442 | 34058 ft | 413 kts | 311° |
| 2026-04-24 15:01 | 35.13447 | -118.74017 | 34039 ft | 412 kts | 311° |
| 2026-04-24 15:01 | 35.17832 | -118.78538 | 34043 ft | 419 kts | 311° |
| 2026-04-24 15:02 | 35.22317 | -118.83096 | 34031 ft | 419 kts | 312° |
| 2026-04-24 15:02 | 35.26814 | -118.87642 | 34025 ft | 419 kts | 311° |
| 2026-04-24 15:03 | 35.31300 | -118.92194 | 34019 ft | 419 kts | 311° |
| 2026-04-24 15:03 | 35.35774 | -118.96755 | 34016 ft | 418 kts | 311° |
| 2026-04-24 15:04 | 35.40232 | -119.01322 | 34017 ft | 419 kts | 311° |
| 2026-04-24 15:04 | 35.44714 | -119.05914 | 34018 ft | 420 kts | 311° |
| 2026-04-24 15:05 | 35.49770 | -119.09676 | 34033 ft | 449 kts | 337° |
| 2026-04-24 15:05 | 35.52942 | -119.10158 | 34051 ft | 469 kts | 351° |
| 2026-04-24 15:05 | 35.56228 | -119.10088 | 34042 ft | 474 kts | 353° |
| 2026-04-24 15:06 | 35.62814 | -119.09782 | 34023 ft | 473 kts | 353° |
| 2026-04-24 15:06 | 35.69386 | -119.09630 | 34015 ft | 471 kts | 351° |
| 2026-04-24 15:07 | 35.75929 | -119.09639 | 34020 ft | 470 kts | 351° |
| 2026-04-24 15:07 | 35.82471 | -119.09683 | 34021 ft | 470 kts | 351° |
| 2026-04-24 15:08 | 35.88983 | -119.09707 | 34023 ft | 472 kts | 351° |
| 2026-04-24 15:08 | 35.95553 | -119.09710 | 34030 ft | 472 kts | 351° |
| 2026-04-24 15:09 | 36.02119 | -119.09709 | 34032 ft | 472 kts | 351° |
| 2026-04-24 15:09 | 36.08685 | -119.09720 | 34030 ft | 471 kts | 352° |
| 2026-04-24 15:10 | 36.15239 | -119.09720 | 34034 ft | 471 kts | 352° |
| 2026-04-24 15:10 | 36.21797 | -119.09717 | 34026 ft | 471 kts | 352° |
| 2026-04-24 15:11 | 36.28352 | -119.09720 | 34034 ft | 471 kts | 352° |
| 2026-04-24 15:11 | 36.34910 | -119.09723 | 34028 ft | 471 kts | 352° |
| 2026-04-24 15:12 | 36.41454 | -119.09724 | 34028 ft | 469 kts | 352° |
| 2026-04-24 15:12 | 36.51239 | -119.09726 | 34021 ft | 469 kts | 352° |
| 2026-04-24 15:13 | 36.57767 | -119.09729 | 34023 ft | 469 kts | 352° |
| 2026-04-24 15:13 | 36.64287 | -119.09729 | 34015 ft | 468 kts | 352° |
| 2026-04-24 15:14 | 36.70800 | -119.09730 | 34008 ft | 468 kts | 352° |
| 2026-04-24 15:14 | 36.77312 | -119.09729 | 34011 ft | 467 kts | 353° |
| 2026-04-24 15:15 | 36.83770 | -119.09730 | 34006 ft | 467 kts | 353° |
| 2026-04-24 15:15 | 36.90271 | -119.09731 | 34008 ft | 467 kts | 353° |
| 2026-04-24 15:16 | 36.96751 | -119.09730 | 34009 ft | 465 kts | 353° |
| 2026-04-24 15:16 | 37.03213 | -119.09731 | 34014 ft | 465 kts | 353° |
| 2026-04-24 15:17 | 37.09678 | -119.09732 | 34014 ft | 465 kts | 353° |
| 2026-04-24 15:17 | 37.16145 | -119.09731 | 34027 ft | 464 kts | 354° |
| 2026-04-24 15:18 | 37.22594 | -119.09730 | 34032 ft | 464 kts | 354° |
| 2026-04-24 15:18 | 37.29052 | -119.09730 | 34044 ft | 463 kts | 354° |
| 2026-04-24 15:19 | 37.35481 | -119.09729 | 34048 ft | 462 kts | 354° |
| 2026-04-24 15:19 | 37.41910 | -119.09729 | 34050 ft | 462 kts | 354° |
| 2026-04-24 15:20 | 37.48334 | -119.09730 | 34051 ft | 461 kts | 354° |
| 2026-04-24 15:20 | 37.54749 | -119.09729 | 34053 ft | 461 kts | 354° |
| 2026-04-24 15:21 | 37.61120 | -119.09730 | 34056 ft | 461 kts | 354° |
| 2026-04-24 15:21 | 37.67574 | -119.09728 | 34061 ft | 461 kts | 355° |
| 2026-04-24 15:22 | 37.73937 | -119.09725 | 34058 ft | 460 kts | 355° |
| 2026-04-24 15:23 | 37.83547 | -119.09728 | 34061 ft | 460 kts | 355° |
| 2026-04-24 15:23 | 37.93123 | -119.09727 | 34061 ft | 459 kts | 355° |
| 2026-04-24 15:25 | 38.07968 | -119.09734 | 34053 ft | 452 kts | 355° |
| 2026-04-24 15:26 | 38.24786 | -119.09725 | 34048 ft | 453 kts | 355° |
| 2026-04-24 15:27 | 38.43689 | -119.09721 | 34043 ft | 452 kts | 355° |
| 2026-04-24 15:29 | 38.62508 | -119.09722 | 34031 ft | 451 kts | 355° |
| 2026-04-24 15:31 | 38.83433 | -119.09721 | 34040 ft | 450 kts | 355° |
| 2026-04-24 15:33 | 39.09437 | -119.09723 | 34035 ft | 448 kts | 355° |
| 2026-04-24 15:34 | 39.24953 | -119.09722 | 34032 ft | 446 kts | 355° |
| 2026-04-24 15:35 | 39.40473 | -119.09721 | 34027 ft | 445 kts | 354° |
| 2026-04-24 15:36 | 39.46671 | -119.09722 | 34030 ft | 445 kts | 354° |
| 2026-04-24 15:36 | 39.55904 | -119.09723 | 34017 ft | 445 kts | 354° |
| 2026-04-24 15:37 | 39.62100 | -119.09724 | 34020 ft | 444 kts | 354° |
| 2026-04-24 15:37 | 39.68269 | -119.09721 | 34027 ft | 444 kts | 354° |
| 2026-04-24 15:38 | 39.74442 | -119.09723 | 34018 ft | 444 kts | 354° |
| 2026-04-24 15:38 | 39.80622 | -119.09727 | 34018 ft | 444 kts | 354° |
| 2026-04-24 15:39 | 39.86803 | -119.09725 | 34017 ft | 443 kts | 354° |
| 2026-04-24 15:39 | 39.89887 | -119.09425 | 34019 ft | 451 kts | 8° |
| 2026-04-24 15:39 | 39.92919 | -119.08227 | 34033 ft | 458 kts | 15° |
| 2026-04-24 15:40 | 39.98862 | -119.05180 | 34020 ft | 460 kts | 17° |
| 2026-04-24 15:40 | 40.04806 | -119.02122 | 34019 ft | 456 kts | 15° |
| 2026-04-24 15:41 | 40.10724 | -118.99206 | 34015 ft | 454 kts | 14° |
| 2026-04-24 15:41 | 40.16663 | -118.96354 | 34017 ft | 455 kts | 14° |
| 2026-04-24 15:42 | 40.22605 | -118.93492 | 34017 ft | 455 kts | 14° |
| 2026-04-24 15:42 | 40.28538 | -118.90609 | 34017 ft | 455 kts | 14° |
| 2026-04-24 15:43 | 40.34438 | -118.87717 | 34019 ft | 456 kts | 14° |
| 2026-04-24 15:43 | 40.40370 | -118.84807 | 34017 ft | 456 kts | 14° |
| 2026-04-24 15:44 | 40.46308 | -118.81898 | 34015 ft | 455 kts | 14° |
| 2026-04-24 15:44 | 40.52247 | -118.78986 | 34016 ft | 455 kts | 14° |
| 2026-04-24 15:45 | 40.57181 | -118.76560 | 34014 ft | 456 kts | 14° |
| 2026-04-24 15:45 | 40.63133 | -118.73622 | 34015 ft | 455 kts | 14° |
| 2026-04-24 15:46 | 40.69050 | -118.70703 | 34018 ft | 454 kts | 14° |
| 2026-04-24 15:46 | 40.74969 | -118.67767 | 34014 ft | 455 kts | 15° |
| 2026-04-24 15:47 | 40.80892 | -118.64824 | 34009 ft | 455 kts | 15° |
| 2026-04-24 15:47 | 40.86817 | -118.61883 | 34007 ft | 454 kts | 14° |
| 2026-04-24 15:48 | 40.92731 | -118.58938 | 34010 ft | 454 kts | 14° |
| 2026-04-24 15:48 | 40.98640 | -118.55996 | 34017 ft | 454 kts | 15° |
| 2026-04-24 15:49 | 41.04548 | -118.53043 | 34022 ft | 454 kts | 15° |
| 2026-04-24 15:49 | 41.10404 | -118.50105 | 34019 ft | 453 kts | 15° |
| 2026-04-24 15:50 | 41.16302 | -118.47140 | 34011 ft | 453 kts | 14° |
| 2026-04-24 15:50 | 41.22198 | -118.44175 | 34012 ft | 453 kts | 14° |
| 2026-04-24 15:51 | 41.28089 | -118.41210 | 34025 ft | 452 kts | 14° |
| 2026-04-24 15:51 | 41.33971 | -118.38246 | 34012 ft | 452 kts | 14° |
| 2026-04-24 15:52 | 41.39894 | -118.35252 | 34029 ft | 453 kts | 14° |
| 2026-04-24 15:52 | 41.45733 | -118.32297 | 34026 ft | 451 kts | 14° |
| 2026-04-24 15:53 | 41.51597 | -118.29314 | 34024 ft | 451 kts | 14° |
| 2026-04-24 15:53 | 41.57466 | -118.26324 | 34024 ft | 452 kts | 14° |
| 2026-04-24 15:54 | 41.63339 | -118.23329 | 34037 ft | 452 kts | 14° |
| 2026-04-24 15:54 | 41.69205 | -118.20338 | 34031 ft | 451 kts | 14° |
| 2026-04-24 15:55 | 41.75061 | -118.17347 | 34040 ft | 451 kts | 14° |
| 2026-04-24 15:55 | 41.80921 | -118.14346 | 34045 ft | 451 kts | 14° |
| 2026-04-24 15:56 | 41.86743 | -118.11356 | 34047 ft | 451 kts | 14° |
| 2026-04-24 15:56 | 41.92637 | -118.08316 | 34051 ft | 451 kts | 14° |
| 2026-04-24 15:57 | 41.98451 | -118.05314 | 34056 ft | 451 kts | 14° |
| 2026-04-24 15:57 | 42.03386 | -118.02768 | 34059 ft | 455 kts | 14° |
| 2026-04-24 15:58 | 42.09310 | -117.99709 | 34061 ft | 454 kts | 14° |
| 2026-04-24 15:58 | 42.15171 | -117.96667 | 34061 ft | 450 kts | 14° |
| 2026-04-24 15:59 | 42.21018 | -117.93635 | 34061 ft | 450 kts | 14° |
| 2026-04-24 15:59 | 42.26862 | -117.90609 | 34069 ft | 450 kts | 14° |
| 2026-04-24 16:00 | 42.32716 | -117.87594 | 34072 ft | 450 kts | 14° |
| 2026-04-24 16:00 | 42.38559 | -117.84552 | 34069 ft | 450 kts | 14° |
| 2026-04-24 16:01 | 42.44287 | -117.81077 | 34072 ft | 462 kts | 31° |
| 2026-04-24 16:01 | 42.46671 | -117.78094 | 33954 ft | 474 kts | 44° |
| 2026-04-24 16:01 | 42.48764 | -117.74613 | 33516 ft | 476 kts | 47° |
| 2026-04-24 16:02 | 42.50768 | -117.71071 | 33019 ft | 473 kts | 47° |
| 2026-04-24 16:02 | 42.52766 | -117.67545 | 32522 ft | 469 kts | 47° |
| 2026-04-24 16:02 | 42.54769 | -117.64063 | 32023 ft | 468 kts | 46° |
| 2026-04-24 16:02 | 42.56794 | -117.60615 | 31528 ft | 467 kts | 45° |
| 2026-04-24 16:03 | 42.58842 | -117.57200 | 31032 ft | 468 kts | 44° |
| 2026-04-24 16:03 | 42.60916 | -117.53783 | 30536 ft | 469 kts | 44° |
| 2026-04-24 16:03 | 42.62998 | -117.50366 | 30041 ft | 470 kts | 44° |
| 2026-04-24 16:03 | 42.65089 | -117.46930 | 29539 ft | 472 kts | 44° |
| 2026-04-24 16:04 | 42.67179 | -117.43480 | 29044 ft | 474 kts | 44° |
| 2026-04-24 16:04 | 42.69276 | -117.40003 | 28552 ft | 475 kts | 44° |
| 2026-04-24 16:04 | 42.71373 | -117.36521 | 28054 ft | 477 kts | 44° |
| 2026-04-24 16:04 | 42.73445 | -117.33062 | 27563 ft | 479 kts | 44° |
| 2026-04-24 16:05 | 42.77653 | -117.26010 | 26437 ft | 480 kts | 44° |
| 2026-04-24 16:05 | 42.79735 | -117.22490 | 25834 ft | 473 kts | 45° |
| 2026-04-24 16:06 | 42.83766 | -117.15591 | 24624 ft | 459 kts | 44° |
| 2026-04-24 16:06 | 42.85740 | -117.12215 | 24023 ft | 453 kts | 44° |
| 2026-04-24 16:06 | 42.89633 | -117.05590 | 22821 ft | 443 kts | 44° |
| 2026-04-24 16:07 | 42.91555 | -117.02326 | 22215 ft | 438 kts | 44° |
| 2026-04-24 16:07 | 42.93456 | -116.99098 | 21634 ft | 435 kts | 44° |
| 2026-04-24 16:07 | 42.97210 | -116.92710 | 20432 ft | 429 kts | 44° |
| 2026-04-24 16:08 | 42.99064 | -116.89546 | 19833 ft | 426 kts | 44° |
| 2026-04-24 16:08 | 43.02748 | -116.83259 | 18635 ft | 421 kts | 44° |
| 2026-04-24 16:09 | 43.06375 | -116.77057 | 17436 ft | 415 kts | 45° |
| 2026-04-24 16:09 | 43.08179 | -116.73995 | 16839 ft | 412 kts | 45° |
| 2026-04-24 16:09 | 43.09976 | -116.70960 | 16235 ft | 409 kts | 45° |
| 2026-04-24 16:09 | 43.11763 | -116.67943 | 15634 ft | 406 kts | 45° |
| 2026-04-24 16:10 | 43.17027 | -116.59042 | 13948 ft | 391 kts | 46° |
| 2026-04-24 16:11 | 43.20334 | -116.53597 | 12916 ft | 355 kts | 44° |
| 2026-04-24 16:11 | 43.21940 | -116.51130 | 12441 ft | 339 kts | 43° |
| 2026-04-24 16:11 | 43.23490 | -116.48785 | 11981 ft | 325 kts | 43° |
| 2026-04-24 16:12 | 43.26424 | -116.44361 | 11073 ft | 303 kts | 44° |
| 2026-04-24 16:12 | 43.27817 | -116.42250 | 10643 ft | 294 kts | 45° |
| 2026-04-24 16:12 | 43.30494 | -116.38166 | 9886 ft | 284 kts | 46° |
| 2026-04-24 16:13 | 43.31805 | -116.36153 | 9487 ft | 280 kts | 46° |
| 2026-04-24 16:13 | 43.34381 | -116.32186 | 8686 ft | 277 kts | 46° |
| 2026-04-24 16:14 | 43.36879 | -116.28303 | 7928 ft | 264 kts | 47° |
| 2026-04-24 16:14 | 43.38077 | -116.26429 | 7547 ft | 258 kts | 47° |
| 2026-04-24 16:14 | 43.40366 | -116.22844 | 7129 ft | 234 kts | 47° |
| 2026-04-24 16:15 | 43.41072 | -116.21738 | 7085 ft | 232 kts | 47° |
| 2026-04-24 16:15 | 43.41918 | -116.16951 | 7021 ft | 237 kts | 102° |
| 2026-04-24 16:16 | 43.40950 | -116.12610 | 7003 ft | 238 kts | 109° |
| 2026-04-24 16:16 | 43.40358 | -116.10487 | 6995 ft | 238 kts | 111° |
| 2026-04-24 16:17 | 43.38450 | -116.04182 | 6978 ft | 238 kts | 112° |
| 2026-04-24 16:17 | 43.37187 | -115.99970 | 6979 ft | 238 kts | 111° |
| 2026-04-24 16:18 | 43.36903 | -115.95618 | 6982 ft | 234 kts | 70° |
| 2026-04-24 16:18 | 43.37981 | -115.91518 | 6966 ft | 211 kts | 70° |
| 2026-04-24 16:18 | 43.38427 | -115.89617 | 6960 ft | 208 kts | 71° |
| 2026-04-24 16:19 | 43.39234 | -115.85817 | 6975 ft | 207 kts | 73° |
| 2026-04-24 16:19 | 43.39746 | -115.84007 | 6957 ft | 197 kts | 50° |
| 2026-04-24 16:20 | 43.42104 | -115.83392 | 7009 ft | 188 kts | 325° |
| 2026-04-24 16:20 | 43.43141 | -115.86568 | 6978 ft | 191 kts | 281° |
| 2026-04-24 16:20 | 43.43448 | -115.88327 | 6877 ft | 188 kts | 286° |
| 2026-04-24 16:21 | 43.44327 | -115.91597 | 6793 ft | 179 kts | 294° |
| 2026-04-24 16:21 | 43.44913 | -115.93094 | 6768 ft | 178 kts | 300° |
| 2026-04-24 16:21 | 43.45578 | -115.94575 | 6416 ft | 180 kts | 302° |
| 2026-04-24 16:22 | 43.46256 | -115.95996 | 6069 ft | 175 kts | 304° |
| 2026-04-24 16:22 | 43.47602 | -115.98687 | 5838 ft | 170 kts | 304° |
| 2026-04-24 16:22 | 43.48282 | -116.00017 | 5814 ft | 168 kts | 305° |
| 2026-04-24 16:23 | 43.48901 | -116.01220 | 5786 ft | 142 kts | 306° |
| 2026-04-24 16:23 | 43.49396 | -116.02385 | 5667 ft | 141 kts | 297° |
| 2026-04-24 16:23 | 43.49816 | -116.03622 | 5457 ft | 143 kts | 296° |
| 2026-04-24 16:24 | 43.50651 | -116.06066 | 5027 ft | 139 kts | 297° |
| 2026-04-24 16:24 | 43.51069 | -116.07271 | 4849 ft | 138 kts | 298° |
| 2026-04-24 16:24 | 43.51488 | -116.08454 | 4672 ft | 139 kts | 297° |
| 2026-04-24 16:24 | 43.51899 | -116.09634 | 4485 ft | 138 kts | 298° |
| 2026-04-24 16:25 | 43.52313 | -116.10818 | 4298 ft | 137 kts | 298° |
| 2026-04-24 16:25 | 43.52726 | -116.11998 | 4123 ft | 137 kts | 298° |
| 2026-04-24 16:25 | 43.53140 | -116.13181 | 3949 ft | 137 kts | 297° |
| 2026-04-24 16:26 | 43.53969 | -116.15545 | 3594 ft | 137 kts | 298° |
| 2026-04-24 16:26 | 43.54383 | -116.16725 | 3451 ft | 138 kts | 298° |
| 2026-04-24 16:26 | 43.55215 | -116.19113 | 3141 ft | 140 kts | 299° |
| 2026-04-24 16:27 | 43.55637 | -116.20311 | 2970 ft | 138 kts | 298° |
| 2026-04-24 16:27 | 43.56042 | -116.21459 | 2862 ft | 122 kts | 296° |
| 2026-04-24 16:27 | 43.56332 | -116.22291 | 2850 ft | 66 kts | 295° |
| 2026-04-24 16:27 | 43.56477 | -116.22710 | 2853 ft | 45 kts | 295° |
| 2026-04-24 16:28 | 43.56571 | -116.22983 | 2850 ft | 19 kts | 298° |
| 2026-04-24 16:28 | 43.56665 | -116.23009 | 2849 ft | 14 kts | 23° |
| 2026-04-24 16:28 | 43.56839 | -116.22876 | 2847 ft | 14 kts | 66° |
| 2026-04-24 16:29 | 43.56826 | -116.22766 | 2850 ft | 11 kts | 113° |
| 2026-04-24 16:29 | 43.56798 | -116.22678 | 2851 ft | 10 kts | 114° |
| 2026-04-24 16:29 | 43.56740 | -116.22512 | 2853 ft | 9 kts | 116° |
| 2026-04-24 16:30 | 43.56695 | -116.22380 | 2856 ft | 14 kts | 115° |
| 2026-04-24 16:30 | 43.56649 | -116.22242 | 2855 ft | 16 kts | 114° |
| 2026-04-24 16:30 | 43.56605 | -116.22110 | 2858 ft | 14 kts | 115° |
| 2026-04-24 16:31 | 43.56564 | -116.21989 | 2859 ft | 14 kts | 116° |
| 2026-04-24 16:31 | 43.56511 | -116.21841 | 2860 ft | 13 kts | 115° |
| 2026-04-24 16:31 | 43.56556 | -116.21735 | 2861 ft | 19 kts | 358° |
| 2026-04-24 16:31 | 43.56693 | -116.21750 | 2861 ft | 10 kts | 355° |
| 2026-04-24 16:32 | 43.56738 | -116.21756 | 2862 ft | 10 kts | 355° |
| 2026-04-24 16:32 | 43.56799 | -116.21790 | 2861 ft | 9 kts | 292° |
| 2026-04-24 16:32 | 43.56770 | -116.21857 | 2861 ft | 1 kts | 221° |
| 2026-04-24 16:32 | 43.56766 | -116.21862 | 2861 ft | 0 kts | 220° |